Time;durP1;ratioP1;P1;durP2;ratioP2;P2;SDS_P1;SDS_P2;PMS_P1;PMS_P2;Temp;Humidity;BMP_temperature;BMP_pressure;BME280_temperature;BME280_humidity;BME280_pressure;Samples;Min_cycle;Max_cycle;Signal;HPM_P1;HPM_P2
2021/09/12 00:01:59;;;;;;;4.75;2.63;;;;;;;;;;5109930;28;20028;-69
2021/09/12 00:04:25;;;;;;;3.92;2.15;;;;;;;;;;5110846;28;20090;-69
2021/09/12 00:09:04;;;;;;;6.20;2.33;;;;;;;;;;5111754;27;20393;-70
2021/09/12 00:11:31;;;;;;;6.65;2.35;;;;;;;;;;5110975;28;20106;-69
2021/09/12 00:18:32;;;;;;;5.13;2.63;;;;;;;;;;5111124;27;20780;-68
2021/09/12 00:20:58;;;;;;;4.15;2.20;;;;;;;;;;5127152;28;20468;-69
2021/09/12 00:24:29;;;;;;;5.22;2.50;;;;;;;;;;5111455;27;21044;-69
2021/09/12 00:26:55;;;;;;;5.20;2.55;;;;;;;;;;5111239;28;20110;-69
2021/09/12 00:29:22;;;;;;;5.45;2.83;;;;;;;;;;5111374;28;20023;-69
2021/09/12 00:32:36;;;;;;;5.63;3.17;;;;;;;;;;5111503;27;20397;-69
2021/09/12 00:38:01;;;;;;;6.47;3.25;;;;;;;;;;5111547;27;20389;-69
2021/09/12 00:43:05;;;;;;;7.03;2.97;;;;;;;;;;5111363;27;20415;-69
2021/09/12 00:45:32;;;;;;;7.03;2.97;;;;;;;;;;5111346;28;20028;-69
2021/09/12 00:47:58;;;;;;;7.50;3.22;;;;;;;;;;5110837;28;20167;-69
2021/09/12 00:51:20;;;;;;;5.70;3.42;;;;;;;;;;5111658;27;20512;-69
2021/09/12 00:53:47;;;;;;;6.03;2.80;;;;;;;;;;5111201;28;20024;-67
2021/09/12 00:56:35;;;;;;;6.60;3.28;;;;;;;;;;5112047;27;20396;-67
2021/09/12 01:01:27;;;;;;;6.38;3.35;;;;;;;;;;5111140;27;20393;-66
2021/09/12 01:03:53;;;;;;;5.05;2.97;;;;;;;;;;5110126;28;20154;-68
2021/09/12 01:08:31;;;;;;;5.55;2.25;;;;;;;;;;5111003;27;20388;-69
2021/09/12 01:11:33;;;;;;;5.50;2.67;;;;;;;;;;5111947;27;20517;-67
2021/09/12 01:15:26;;;;;;;5.32;3.17;;;;;;;;;;5111090;27;20500;-67
2021/09/12 01:19:05;;;;;;;6.35;2.70;;;;;;;;;;5111439;27;20412;-68
2021/09/12 01:23:00;;;;;;;4.80;2.50;;;;;;;;;;5110893;27;20935;-66
2021/09/12 01:29:18;;;;;;;8.35;2.70;;;;;;;;;;5111254;27;20397;-69
2021/09/12 01:32:31;;;;;;;10.40;3.53;;;;;;;;;;5112040;27;20401;-66
2021/09/12 01:34:58;;;;;;;5.68;2.95;;;;;;;;;;5110936;28;20028;-66
2021/09/12 01:39:32;;;;;;;8.25;3.38;;;;;;;;;;5111625;27;20923;-66
2021/09/12 01:45:43;;;;;;;6.85;3.58;;;;;;;;;;5111441;27;20412;-69
2021/09/12 01:48:09;;;;;;;7.22;3.90;;;;;;;;;;5111397;28;20024;-66
2021/09/12 01:50:36;;;;;;;5.82;3.72;;;;;;;;;;5126748;28;20035;-66
2021/09/12 01:53:02;;;;;;;5.38;3.13;;;;;;;;;;5127080;28;20047;-66
2021/09/12 01:55:28;;;;;;;7.10;3.83;;;;;;;;;;5111221;28;20016;-69
2021/09/12 01:57:54;;;;;;;9.48;3.78;;;;;;;;;;5126600;28;20380;-67
2021/09/12 02:00:20;;;;;;;6.85;3.40;;;;;;;;;;5111134;28;20031;-67
2021/09/12 02:02:46;;;;;;;6.75;3.20;;;;;;;;;;5111106;28;20444;-67
2021/09/12 02:06:54;;;;;;;9.15;3.28;;;;;;;;;;5111513;27;20376;-66
2021/09/12 02:09:22;;;;;;;4.97;2.70;;;;;;;;;;5111350;28;20031;-66
2021/09/12 02:11:48;;;;;;;5.30;3.05;;;;;;;;;;5110908;28;20020;-68
2021/09/12 02:15:06;;;;;;;5.30;2.95;;;;;;;;;;5111834;27;20935;-68
2021/09/12 02:17:33;;;;;;;5.20;3.17;;;;;;;;;;5126750;28;20426;-69
2021/09/12 02:20:00;;;;;;;5.38;3.25;;;;;;;;;;5127149;28;20031;-69
2021/09/12 02:22:26;;;;;;;6.60;3.15;;;;;;;;;;5111320;28;20391;-69
2021/09/12 02:24:52;;;;;;;6.32;3.67;;;;;;;;;;5110868;28;20024;-69
2021/09/12 02:29:05;;;;;;;6.82;3.22;;;;;;;;;;5111989;27;20420;-67
2021/09/12 02:31:32;;;;;;;3.92;2.63;;;;;;;;;;5111013;28;20023;-67
2021/09/12 02:36:01;;;;;;;5.00;3.40;;;;;;;;;;5111603;27;20879;-67
2021/09/12 02:38:27;;;;;;;6.63;3.03;;;;;;;;;;5110956;28;20456;-67
2021/09/12 02:40:54;;;;;;;7.30;3.80;;;;;;;;;;5111296;28;20095;-67
2021/09/12 02:43:20;;;;;;;4.28;2.80;;;;;;;;;;5111278;28;20032;-67
2021/09/12 02:45:46;;;;;;;7.60;3.97;;;;;;;;;;5110830;28;20074;-67
2021/09/12 02:48:12;;;;;;;6.80;3.50;;;;;;;;;;5111233;28;20026;-66
2021/09/12 02:50:38;;;;;;;5.50;3.60;;;;;;;;;;5111124;28;20016;-67
2021/09/12 02:53:05;;;;;;;6.38;3.97;;;;;;;;;;5111098;28;20524;-67
2021/09/12 02:55:31;;;;;;;8.27;4.38;;;;;;;;;;5109625;28;20036;-67
2021/09/12 02:57:57;;;;;;;5.60;3.60;;;;;;;;;;5111111;28;20095;-67
2021/09/12 03:03:25;;;;;;;8.27;3.72;;;;;;;;;;5111699;27;20840;-66
2021/09/12 03:05:51;;;;;;;6.35;3.35;;;;;;;;;;5111340;28;20369;-67
2021/09/12 03:08:34;;;;;;;7.47;4.13;;;;;;;;;;5070869;28;20388;-67
2021/09/12 03:11:00;;;;;;;5.50;3.53;;;;;;;;;;5069501;28;20035;-66
2021/09/12 03:13:26;;;;;;;6.20;3.65;;;;;;;;;;5070381;28;20036;-66
2021/09/12 03:15:52;;;;;;;9.00;3.60;;;;;;;;;;5069365;28;20124;-66
2021/09/12 03:22:00;;;;;;;6.95;3.60;;;;;;;;;;5111194;27;20458;-67
2021/09/12 03:29:09;;;;;;;8.02;4.03;;;;;;;;;;5110922;27;20828;-66
2021/09/12 03:33:59;;;;;;;4.90;3.30;;;;;;;;;;5111452;27;20785;-67
2021/09/12 03:36:27;;;;;;;7.18;3.80;;;;;;;;;;5111000;28;20024;-69
2021/09/12 03:46:39;;;;;;;8.30;4.28;;;;;;;;;;5111402;27;20396;-69
2021/09/12 03:51:15;;;;;;;7.72;4.00;;;;;;;;;;5111575;27;20393;-67
2021/09/12 03:53:41;;;;;;;6.68;3.65;;;;;;;;;;5111586;28;20032;-67
2021/09/12 03:57:00;;;;;;;6.65;3.58;;;;;;;;;;5111297;27;20505;-67
2021/09/12 03:59:26;;;;;;;6.80;4.05;;;;;;;;;;5110273;28;20099;-67
2021/09/12 04:01:52;;;;;;;9.27;5.60;;;;;;;;;;5111444;28;20020;-67
2021/09/12 04:04:18;;;;;;;8.15;4.25;;;;;;;;;;5110955;28;20024;-67
2021/09/12 04:07:10;;;;;;;15.45;5.15;;;;;;;;;;5111536;27;20388;-68
2021/09/12 04:09:37;;;;;;;11.25;4.95;;;;;;;;;;5111037;28;20036;-68
2021/09/12 04:13:41;;;;;;;9.18;3.95;;;;;;;;;;5071235;28;20407;-66
2021/09/12 04:17:53;;;;;;;8.68;5.10;;;;;;;;;;5070680;28;20516;-66
2021/09/12 04:22:11;;;;;;;8.52;4.63;;;;;;;;;;5111454;27;20416;-69
2021/09/12 04:24:37;;;;;;;10.00;5.32;;;;;;;;;;5111191;28;20031;-67
2021/09/12 04:27:03;;;;;;;14.35;7.13;;;;;;;;;;5111272;28;20028;-67
2021/09/12 04:31:03;;;;;;;17.35;11.40;;;;;;;;;;5110967;27;20417;-67
2021/09/12 04:33:29;;;;;;;15.07;9.27;;;;;;;;;;5111660;28;20475;-67
2021/09/12 04:35:56;;;;;;;18.50;10.88;;;;;;;;;;5127092;28;20426;-70
2021/09/12 04:38:22;;;;;;;14.88;9.80;;;;;;;;;;5110882;28;20020;-68
2021/09/12 04:42:43;;;;;;;10.07;5.78;;;;;;;;;;5111676;27;20396;-69
2021/09/12 04:45:09;;;;;;;8.07;5.15;;;;;;;;;;5111334;28;20077;-69
2021/09/12 04:47:35;;;;;;;8.82;4.80;;;;;;;;;;5111336;28;20035;-70
2021/09/12 04:50:02;;;;;;;6.80;4.20;;;;;;;;;;5110034;28;20423;-68
2021/09/12 04:52:39;;;;;;;7.18;3.60;;;;;;;;;;5111005;27;20394;-69
2021/09/12 04:56:47;;;;;;;11.50;6.93;;;;;;;;;;5071071;28;20387;-67
2021/09/12 05:00:59;;;;;;;8.50;4.80;;;;;;;;;;5070357;28;20430;-68
2021/09/12 05:03:25;;;;;;;10.05;4.32;;;;;;;;;;5070764;28;20082;-68
2021/09/12 05:06:31;;;;;;;8.38;3.90;;;;;;;;;;5111431;27;20469;-67
2021/09/12 05:09:39;;;;;;;6.43;3.70;;;;;;;;;;5111601;27;20513;-67
2021/09/12 05:18:53;;;;;;;5.95;3.60;;;;;;;;;;5111623;27;20412;-69
2021/09/12 05:21:20;;;;;;;6.70;3.65;;;;;;;;;;5110910;28;20039;-69
2021/09/12 05:23:46;;;;;;;13.23;4.38;;;;;;;;;;5111539;28;20050;-68
2021/09/12 05:27:12;;;;;;;6.38;3.75;;;;;;;;;;5111399;27;20525;-67
2021/09/12 05:29:38;;;;;;;5.10;3.25;;;;;;;;;;5110334;28;20357;-67
2021/09/12 05:32:05;;;;;;;5.25;3.17;;;;;;;;;;5111464;28;20028;-67
2021/09/12 05:34:31;;;;;;;6.20;3.17;;;;;;;;;;5111033;28;20099;-68
2021/09/12 05:36:57;;;;;;;8.15;4.38;;;;;;;;;;5111341;28;20020;-69
2021/09/12 05:39:23;;;;;;;8.25;3.58;;;;;;;;;;5109958;28;20028;-69
2021/09/12 05:41:50;;;;;;;5.47;3.30;;;;;;;;;;5110877;28;20023;-69
2021/09/12 05:44:16;;;;;;;5.25;3.00;;;;;;;;;;5111085;28;20092;-69
2021/09/12 05:46:42;;;;;;;6.47;3.42;;;;;;;;;;5110956;28;20049;-69
2021/09/12 05:49:08;;;;;;;7.10;3.90;;;;;;;;;;5110783;28;20023;-70
2021/09/12 05:51:35;;;;;;;7.22;3.97;;;;;;;;;;5110933;28;20532;-70
2021/09/12 05:55:25;;;;;;;8.65;3.67;;;;;;;;;;5070476;28;20404;-69
2021/09/12 05:57:51;;;;;;;8.38;4.05;;;;;;;;;;5069442;28;20382;-69
2021/09/12 06:00:38;;;;;;;6.28;3.25;;;;;;;;;;5111894;27;20389;-67
2021/09/12 06:04:56;;;;;;;11.35;4.80;;;;;;;;;;5111377;27;20518;-69
2021/09/12 06:08:53;;;;;;;12.52;5.00;;;;;;;;;;5112093;27;20397;-69
2021/09/12 06:13:45;;;;;;;9.55;5.03;;;;;;;;;;5111385;27;20415;-68
2021/09/12 06:16:11;;;;;;;10.43;5.03;;;;;;;;;;5126694;28;20028;-68
2021/09/12 06:19:05;;;;;;;9.15;4.60;;;;;;;;;;5051873;28;20514;-69
2021/09/12 06:21:31;;;;;;;10.75;5.18;;;;;;;;;;5050940;28;20025;-70
2021/09/12 06:23:58;;;;;;;13.00;5.38;;;;;;;;;;5050284;28;20486;-68
2021/09/12 06:26:25;;;;;;;8.27;4.85;;;;;;;;;;5050726;28;20060;-68
2021/09/12 06:30:30;;;;;;;7.35;4.25;;;;;;;;;;5111561;27;20428;-69
2021/09/12 06:35:29;;;;;;;9.45;4.00;;;;;;;;;;5112190;27;20520;-68
2021/09/12 06:37:55;;;;;;;9.57;4.63;;;;;;;;;;5110851;28;20024;-68
2021/09/12 06:40:23;;;;;;;6.82;4.20;;;;;;;;;;5111350;28;20024;-68
2021/09/12 06:43:03;;;;;;;8.55;4.30;;;;;;;;;;5111702;27;20881;-67
2021/09/12 06:45:30;;;;;;;7.57;3.67;;;;;;;;;;5110803;28;20034;-68
2021/09/12 06:47:56;;;;;;;7.78;3.50;;;;;;;;;;5111234;28;20051;-68
2021/09/12 06:50:23;;;;;;;6.97;3.30;;;;;;;;;;5110007;28;20031;-68
2021/09/12 06:55:07;;;;;;;8.55;3.78;;;;;;;;;;5111638;27;20412;-68
2021/09/12 06:57:33;;;;;;;6.00;3.22;;;;;;;;;;5127113;28;20093;-68
2021/09/12 07:03:54;;;;;;;8.00;3.90;;;;;;;;;;5111814;27;20446;-69
2021/09/12 07:07:23;;;;;;;11.73;4.32;;;;;;;;;;5111023;27;20428;-69
2021/09/12 07:09:49;;;;;;;9.43;3.42;;;;;;;;;;5111294;28;20023;-67
2021/09/12 07:12:15;;;;;;;7.85;4.05;;;;;;;;;;5109974;28;20031;-68
2021/09/12 07:14:42;;;;;;;6.95;3.83;;;;;;;;;;5110881;28;20035;-68
2021/09/12 07:17:08;;;;;;;10.73;4.25;;;;;;;;;;5111204;28;20077;-70
2021/09/12 07:23:09;;;;;;;5.90;3.05;;;;;;;;;;5030935;28;20394;-69
2021/09/12 07:25:35;;;;;;;7.68;3.58;;;;;;;;;;5031103;28;20022;-69
2021/09/12 07:28:01;;;;;;;9.95;3.85;;;;;;;;;;5029166;28;20022;-69
2021/09/12 07:30:28;;;;;;;7.30;3.92;;;;;;;;;;5030863;28;20034;-69
2021/09/12 07:32:54;;;;;;;7.10;3.40;;;;;;;;;;5031055;28;20033;-68
2021/09/12 07:35:20;;;;;;;6.97;3.30;;;;;;;;;;5030372;28;20022;-68
2021/09/12 07:37:46;;;;;;;6.22;3.10;;;;;;;;;;5030746;28;20100;-68
2021/09/12 07:40:13;;;;;;;7.38;3.22;;;;;;;;;;5030629;28;20431;-68
2021/09/12 07:43:45;;;;;;;7.32;3.60;;;;;;;;;;5111525;27;20446;-68
2021/09/12 07:46:11;;;;;;;9.20;3.45;;;;;;;;;;5111248;28;20024;-68
2021/09/12 07:48:38;;;;;;;6.63;3.45;;;;;;;;;;5109517;28;20054;-67
2021/09/12 07:51:05;;;;;;;7.82;3.67;;;;;;;;;;5109912;28;20468;-68
2021/09/12 07:53:58;;;;;;;7.07;3.00;;;;;;;;;;5112144;27;20439;-68
2021/09/12 07:58:11;;;;;;;5.22;3.05;;;;;;;;;;5111787;27;20412;-69
2021/09/12 08:00:38;;;;;;;6.28;3.60;;;;;;;;;;5111555;28;20039;-67
2021/09/12 08:03:49;;;;;;;9.05;3.45;;;;;;;;;;5070433;28;20418;-67
2021/09/12 08:06:15;;;;;;;7.72;3.60;;;;;;;;;;5071033;28;20024;-68
2021/09/12 08:08:41;;;;;;;7.00;3.65;;;;;;;;;;5069035;28;20120;-68
2021/09/12 08:11:07;;;;;;;7.80;4.00;;;;;;;;;;5069383;28;20017;-68
2021/09/12 08:13:33;;;;;;;14.07;3.70;;;;;;;;;;5069357;28;20021;-68
2021/09/12 08:16:00;;;;;;;7.97;3.47;;;;;;;;;;5068875;28;20037;-68
2021/09/12 08:18:26;;;;;;;6.43;3.08;;;;;;;;;;5069206;28;20025;-68
2021/09/12 08:21:43;;;;;;;5.65;2.90;;;;;;;;;;5111745;27;20384;-68
2021/09/12 08:25:49;;;;;;;4.35;2.50;;;;;;;;;;5031167;28;20390;-69
2021/09/12 08:28:15;;;;;;;5.35;3.00;;;;;;;;;;5031054;28;20466;-69
2021/09/12 08:30:41;;;;;;;3.97;2.60;;;;;;;;;;5030575;28;20030;-69
2021/09/12 08:33:14;;;;;;;9.20;3.03;;;;;;;;;;5029531;28;20443;-67
2021/09/12 08:35:41;;;;;;;8.82;2.70;;;;;;;;;;5030824;28;20026;-68
2021/09/12 08:38:08;;;;;;;5.13;2.30;;;;;;;;;;5030344;28;20022;-68
2021/09/12 08:40:34;;;;;;;6.18;2.85;;;;;;;;;;5030721;28;20100;-69
2021/09/12 08:43:01;;;;;;;5.90;2.85;;;;;;;;;;5029367;28;20030;-68
2021/09/12 08:45:55;;;;;;;5.75;2.40;;;;;;;;;;5111131;27;20377;-67
2021/09/12 08:49:32;;;;;;;5.03;2.72;;;;;;;;;;5111506;27;20309;-67
2021/09/12 08:51:58;;;;;;;7.25;2.92;;;;;;;;;;5111001;28;20395;-68
2021/09/12 08:54:24;;;;;;;8.32;2.95;;;;;;;;;;5111572;28;20077;-68
2021/09/12 08:56:50;;;;;;;3.88;2.40;;;;;;;;;;5111516;28;20024;-69
2021/09/12 08:59:23;;;;;;;5.90;2.50;;;;;;;;;;5110757;28;20076;-69
2021/09/12 09:02:24;;;;;;;6.05;2.70;;;;;;;;;;5111985;27;20397;-69
2021/09/12 09:04:59;;;;;;;4.65;2.25;;;;;;;;;;5110114;28;20421;-69
2021/09/12 09:07:29;;;;;;;5.13;2.40;;;;;;;;;;5111619;28;20068;-69
2021/09/12 09:09:56;;;;;;;5.70;2.42;;;;;;;;;;5111608;28;20091;-69
2021/09/12 09:12:24;;;;;;;4.15;2.15;;;;;;;;;;5110820;28;20472;-69
2021/09/12 09:15:02;;;;;;;4.25;2.22;;;;;;;;;;5111170;28;20031;-69
2021/09/12 09:17:28;;;;;;;4.53;2.20;;;;;;;;;;5109793;28;20024;-69
2021/09/12 09:19:55;;;;;;;5.15;2.20;;;;;;;;;;5110731;28;20027;-69
2021/09/12 09:24:29;;;;;;;4.32;1.90;;;;;;;;;;5111504;27;20400;-69
2021/09/12 09:27:00;;;;;;;6.43;1.83;;;;;;;;;;5126801;28;20032;-69
2021/09/12 09:29:26;;;;;;;4.18;1.90;;;;;;;;;;5111282;28;20024;-69
2021/09/12 09:32:01;;;;;;;4.45;1.98;;;;;;;;;;5111242;28;20020;-68
2021/09/12 09:34:28;;;;;;;3.78;2.28;;;;;;;;;;5110785;28;20023;-68
2021/09/12 09:37:06;;;;;;;4.63;2.20;;;;;;;;;;5126914;28;20024;-69
2021/09/12 09:39:36;;;;;;;3.83;2.17;;;;;;;;;;5111421;28;20047;-68
2021/09/12 09:42:03;;;;;;;4.90;2.65;;;;;;;;;;5110616;28;20016;-69
2021/09/12 09:44:29;;;;;;;4.00;2.10;;;;;;;;;;5126729;28;20369;-69
2021/09/12 09:46:55;;;;;;;2.88;1.88;;;;;;;;;;5111006;28;20016;-69
2021/09/12 09:49:29;;;;;;;4.18;2.15;;;;;;;;;;5126299;28;20032;-68
2021/09/12 09:51:56;;;;;;;5.85;2.80;;;;;;;;;;5111063;28;20507;-68
2021/09/12 09:54:23;;;;;;;4.90;2.22;;;;;;;;;;5110411;28;20024;-68
2021/09/12 09:56:50;;;;;;;4.47;2.47;;;;;;;;;;5110752;28;20392;-68
2021/09/12 09:59:17;;;;;;;3.28;2.03;;;;;;;;;;5126563;28;20121;-68
2021/09/12 10:01:49;;;;;;;6.55;2.35;;;;;;;;;;5110313;28;20020;-68
2021/09/12 10:04:16;;;;;;;3.30;1.90;;;;;;;;;;5110987;28;20039;-68
2021/09/12 10:06:42;;;;;;;4.47;2.40;;;;;;;;;;5110817;28;20046;-68
2021/09/12 10:09:13;;;;;;;5.32;2.58;;;;;;;;;;5110144;28;20030;-68
2021/09/12 10:11:43;;;;;;;5.97;2.50;;;;;;;;;;5110485;28;20102;-68
2021/09/12 10:14:10;;;;;;;5.00;3.03;;;;;;;;;;5110584;28;20055;-68
2021/09/12 10:16:37;;;;;;;3.47;2.05;;;;;;;;;;5110087;28;20030;-68
2021/09/12 10:19:03;;;;;;;4.38;2.08;;;;;;;;;;5110373;28;20081;-68
2021/09/12 10:21:33;;;;;;;5.55;2.30;;;;;;;;;;5110285;28;20034;-68
2021/09/12 10:24:00;;;;;;;5.10;2.13;;;;;;;;;;5125386;28;20056;-68
2021/09/12 10:26:27;;;;;;;5.13;2.13;;;;;;;;;;5110202;28;20117;-68
2021/09/12 10:28:53;;;;;;;4.90;2.10;;;;;;;;;;5110260;28;20526;-68
2021/09/12 10:31:30;;;;;;;5.95;2.75;;;;;;;;;;5109717;28;20099;-69
2021/09/12 10:34:10;;;;;;;10.63;3.15;;;;;;;;;;5107207;28;20020;-69
2021/09/12 10:36:37;;;;;;;5.07;3.05;;;;;;;;;;5096247;28;20454;-68
2021/09/12 10:39:21;;;;;;;5.90;2.10;;;;;;;;;;5096411;28;20354;-69
2021/09/12 10:42:06;;;;;;;4.18;2.20;;;;;;;;;;5096332;28;20077;-69
2021/09/12 10:44:32;;;;;;;4.57;2.03;;;;;;;;;;5095841;28;20028;-68
2021/09/12 10:47:14;;;;;;;3.08;1.90;;;;;;;;;;5096224;28;20028;-69
2021/09/12 10:49:40;;;;;;;4.95;2.00;;;;;;;;;;5111895;28;20024;-69
2021/09/12 10:52:10;;;;;;;7.05;2.25;;;;;;;;;;5095848;28;20024;-69
2021/09/12 10:54:55;;;;;;;4.90;2.28;;;;;;;;;;5096087;28;20045;-69
2021/09/12 10:57:21;;;;;;;3.00;1.48;;;;;;;;;;5096371;28;20390;-69
2021/09/12 10:59:47;;;;;;;3.58;1.60;;;;;;;;;;5095656;28;20024;-68
2021/09/12 11:02:16;;;;;;;5.28;1.90;;;;;;;;;;5094578;28;20023;-68
2021/09/12 11:04:42;;;;;;;4.63;1.80;;;;;;;;;;5095557;28;20028;-68
2021/09/12 11:07:08;;;;;;;3.90;1.63;;;;;;;;;;5095955;28;20051;-69
2021/09/12 11:09:34;;;;;;;3.72;1.80;;;;;;;;;;5095875;28;20035;-68
2021/09/12 11:12:05;;;;;;;3.50;1.65;;;;;;;;;;5095389;28;20031;-68
2021/09/12 11:14:31;;;;;;;3.10;1.73;;;;;;;;;;5095742;28;20024;-68
2021/09/12 11:17:11;;;;;;;2.53;1.55;;;;;;;;;;5095798;28;20028;-68
2021/09/12 11:19:37;;;;;;;4.53;2.05;;;;;;;;;;5095327;28;20077;-68
2021/09/12 11:22:04;;;;;;;2.75;1.40;;;;;;;;;;5095353;28;20024;-68
2021/09/12 11:24:30;;;;;;;3.53;1.85;;;;;;;;;;5095760;28;20480;-68
2021/09/12 11:26:57;;;;;;;3.63;1.95;;;;;;;;;;5095114;28;20021;-68
2021/09/12 11:29:25;;;;;;;4.88;1.75;;;;;;;;;;5095424;28;20020;-68
2021/09/12 11:32:00;;;;;;;3.28;1.85;;;;;;;;;;5095342;28;20020;-68
2021/09/12 11:34:26;;;;;;;3.63;1.90;;;;;;;;;;5095024;28;20047;-68
2021/09/12 11:36:54;;;;;;;4.47;1.58;;;;;;;;;;5095296;28;20028;-68
2021/09/12 11:39:25;;;;;;;3.38;1.50;;;;;;;;;;5095601;28;20103;-68
2021/09/12 11:41:52;;;;;;;3.65;1.42;;;;;;;;;;5094826;28;20028;-68
2021/09/12 11:44:19;;;;;;;3.28;1.63;;;;;;;;;;5095118;28;20036;-68
2021/09/12 11:46:50;;;;;;;3.85;1.83;;;;;;;;;;5093617;28;20081;-67
2021/09/12 11:49:17;;;;;;;2.93;1.33;;;;;;;;;;5095021;28;20020;-68
2021/09/12 11:51:48;;;;;;;2.45;1.45;;;;;;;;;;5110688;28;20024;-68
2021/09/12 11:54:16;;;;;;;3.70;1.67;;;;;;;;;;5094517;28;20030;-68
2021/09/12 11:56:43;;;;;;;4.10;2.25;;;;;;;;;;5094940;28;20023;-68
2021/09/12 11:59:11;;;;;;;4.07;1.90;;;;;;;;;;5094805;28;20024;-68
2021/09/12 12:01:38;;;;;;;2.72;1.50;;;;;;;;;;5094612;28;20016;-68
2021/09/12 12:04:05;;;;;;;5.55;2.15;;;;;;;;;;5094791;28;20028;-68
2021/09/12 12:06:32;;;;;;;4.80;1.98;;;;;;;;;;5094751;28;20022;-68
2021/09/12 12:09:10;;;;;;;3.35;1.70;;;;;;;;;;5094263;28;20115;-68
2021/09/12 12:11:39;;;;;;;4.60;1.88;;;;;;;;;;5110326;28;20054;-68
2021/09/12 12:14:05;;;;;;;3.35;1.80;;;;;;;;;;5110257;28;20020;-68
2021/09/12 12:16:38;;;;;;;3.15;1.50;;;;;;;;;;5094119;28;20024;-68
2021/09/12 12:19:07;;;;;;;2.97;1.70;;;;;;;;;;5094347;28;20020;-68
2021/09/12 12:21:33;;;;;;;3.50;1.70;;;;;;;;;;5094444;28;20020;-68
2021/09/12 12:24:08;;;;;;;3.08;1.63;;;;;;;;;;5093776;28;20048;-68
2021/09/12 12:26:39;;;;;;;2.30;1.45;;;;;;;;;;5094413;28;20049;-69
2021/09/12 12:29:05;;;;;;;3.83;1.73;;;;;;;;;;5094138;28;20043;-68
2021/09/12 12:31:31;;;;;;;5.88;2.25;;;;;;;;;;5094207;28;20091;-68
2021/09/12 12:33:57;;;;;;;4.45;1.80;;;;;;;;;;5109936;28;20047;-68
2021/09/12 12:36:23;;;;;;;4.07;1.77;;;;;;;;;;5093750;28;20074;-68
2021/09/12 12:38:50;;;;;;;3.90;1.50;;;;;;;;;;5094153;28;20032;-68
2021/09/12 12:41:20;;;;;;;3.53;1.58;;;;;;;;;;5094074;28;20468;-68
2021/09/12 12:43:47;;;;;;;4.25;1.75;;;;;;;;;;5109223;28;20511;-68
2021/09/12 12:46:14;;;;;;;5.03;1.73;;;;;;;;;;5094243;28;20016;-68
2021/09/12 12:48:42;;;;;;;4.97;1.55;;;;;;;;;;5094030;28;20031;-68
2021/09/12 12:51:15;;;;;;;4.88;2.17;;;;;;;;;;5093429;28;20368;-68
2021/09/12 12:53:45;;;;;;;3.60;2.20;;;;;;;;;;5093957;28;20020;-68
2021/09/12 12:56:15;;;;;;;3.95;1.90;;;;;;;;;;5094014;28;20502;-68
2021/09/12 12:58:41;;;;;;;6.78;1.83;;;;;;;;;;5093171;28;20016;-68
2021/09/12 13:01:08;;;;;;;4.95;2.00;;;;;;;;;;5093658;28;20024;-68
2021/09/12 13:03:34;;;;;;;4.80;2.00;;;;;;;;;;5093687;28;20032;-68
2021/09/12 13:06:03;;;;;;;4.32;1.90;;;;;;;;;;5093309;28;20024;-68
2021/09/12 13:08:30;;;;;;;4.72;2.22;;;;;;;;;;5109260;28;20053;-68
2021/09/12 13:10:56;;;;;;;5.05;1.95;;;;;;;;;;5093588;28;20031;-68
2021/09/12 13:13:22;;;;;;;3.83;1.88;;;;;;;;;;5108822;28;20024;-68
2021/09/12 13:15:49;;;;;;;4.88;2.63;;;;;;;;;;5093642;28;20047;-68
2021/09/12 13:18:16;;;;;;;4.93;2.42;;;;;;;;;;5108871;28;20089;-68
2021/09/12 13:20:43;;;;;;;5.60;2.78;;;;;;;;;;5093479;28;20016;-67
2021/09/12 13:23:09;;;;;;;3.78;2.00;;;;;;;;;;5093252;28;20131;-68
2021/09/12 13:25:35;;;;;;;3.22;1.80;;;;;;;;;;5093101;28;20055;-69
2021/09/12 13:28:01;;;;;;;4.82;2.55;;;;;;;;;;5109182;28;20392;-69
2021/09/12 13:30:28;;;;;;;6.10;2.70;;;;;;;;;;5093514;28;20024;-69
2021/09/12 13:32:55;;;;;;;5.40;2.72;;;;;;;;;;5093005;28;20051;-69
2021/09/12 13:35:21;;;;;;;8.38;2.78;;;;;;;;;;5093586;28;20021;-69
2021/09/12 13:37:48;;;;;;;6.15;2.72;;;;;;;;;;5093437;28;20040;-69
2021/09/12 13:40:15;;;;;;;4.60;2.40;;;;;;;;;;5108609;28;20020;-69
2021/09/12 13:42:41;;;;;;;6.55;3.15;;;;;;;;;;5093560;28;20376;-69
2021/09/12 13:45:08;;;;;;;5.75;3.17;;;;;;;;;;5093332;28;20091;-69
2021/09/12 13:47:34;;;;;;;8.00;3.10;;;;;;;;;;5092932;28;20024;-68
2021/09/12 13:50:00;;;;;;;7.45;3.00;;;;;;;;;;5093389;28;20024;-68
2021/09/12 13:52:26;;;;;;;6.00;2.72;;;;;;;;;;5093262;28;20422;-68
2021/09/12 13:54:52;;;;;;;8.18;3.50;;;;;;;;;;5092925;28;20066;-70
2021/09/12 13:57:19;;;;;;;6.93;3.58;;;;;;;;;;5093191;28;20051;-69
2021/09/12 13:59:45;;;;;;;10.23;3.22;;;;;;;;;;5093243;28;20093;-69
2021/09/12 14:02:11;;;;;;;7.78;2.85;;;;;;;;;;5092653;28;20028;-69
2021/09/12 14:04:42;;;;;;;6.82;3.13;;;;;;;;;;5108878;28;20060;-69
2021/09/12 14:07:09;;;;;;;5.72;2.50;;;;;;;;;;5093433;28;20174;-69
2021/09/12 14:09:35;;;;;;;7.90;3.28;;;;;;;;;;5093836;28;20052;-69
2021/09/12 14:12:02;;;;;;;7.88;3.20;;;;;;;;;;5097017;28;20028;-68
2021/09/12 14:14:28;;;;;;;6.53;2.67;;;;;;;;;;5096748;28;20078;-68
2021/09/12 14:16:54;;;;;;;6.80;2.95;;;;;;;;;;5096831;28;20024;-69
2021/09/12 14:19:20;;;;;;;6.40;3.00;;;;;;;;;;5112555;28;20020;-69
2021/09/12 14:21:46;;;;;;;6.95;3.33;;;;;;;;;;5096329;28;20024;-69
2021/09/12 14:24:13;;;;;;;8.32;3.83;;;;;;;;;;5112161;28;20048;-69
2021/09/12 14:26:39;;;;;;;10.40;5.25;;;;;;;;;;5096608;28;20048;-68
2021/09/12 14:29:06;;;;;;;5.88;2.60;;;;;;;;;;5096181;28;20024;-69
2021/09/12 14:31:32;;;;;;;5.47;2.50;;;;;;;;;;5096441;28;20391;-70
2021/09/12 14:33:59;;;;;;;5.25;2.28;;;;;;;;;;5096516;28;20377;-69
2021/09/12 14:36:25;;;;;;;7.38;2.67;;;;;;;;;;5111844;28;20499;-68
2021/09/12 14:38:51;;;;;;;5.10;2.50;;;;;;;;;;5112171;28;20028;-68
2021/09/12 14:41:18;;;;;;;4.50;2.10;;;;;;;;;;5112010;28;20101;-68
2021/09/12 14:43:44;;;;;;;6.93;2.03;;;;;;;;;;5095944;28;20032;-68
2021/09/12 14:46:10;;;;;;;5.32;2.60;;;;;;;;;;5096407;28;20024;-68
2021/09/12 14:48:36;;;;;;;5.03;2.30;;;;;;;;;;5096781;28;20131;-69
2021/09/12 14:51:02;;;;;;;5.65;2.22;;;;;;;;;;5095818;28;20372;-68
2021/09/12 14:53:30;;;;;;;7.47;3.20;;;;;;;;;;5096238;28;20039;-70
2021/09/12 14:55:56;;;;;;;5.80;3.05;;;;;;;;;;5111866;28;20059;-70
2021/09/12 14:58:22;;;;;;;9.43;5.38;;;;;;;;;;5095680;28;20035;-70
2021/09/12 15:00:49;;;;;;;8.57;5.55;;;;;;;;;;5096292;28;20521;-70
2021/09/12 15:03:15;;;;;;;6.18;3.53;;;;;;;;;;5095949;28;20036;-68
2021/09/12 15:05:44;;;;;;;6.50;2.75;;;;;;;;;;5095502;28;20020;-68
2021/09/12 15:08:11;;;;;;;4.45;2.60;;;;;;;;;;5096103;28;20020;-68
2021/09/12 15:10:37;;;;;;;6.95;2.90;;;;;;;;;;5095779;28;20099;-68
2021/09/12 15:13:05;;;;;;;6.45;3.10;;;;;;;;;;5095329;28;20077;-68
2021/09/12 15:15:32;;;;;;;7.38;3.00;;;;;;;;;;5095690;28;20046;-69
2021/09/12 15:17:58;;;;;;;6.18;2.78;;;;;;;;;;5095353;28;20016;-68
2021/09/12 15:20:24;;;;;;;8.27;2.63;;;;;;;;;;5095502;28;20390;-68
2021/09/12 15:22:50;;;;;;;11.93;3.33;;;;;;;;;;5111014;28;20048;-67
2021/09/12 15:25:16;;;;;;;6.15;2.67;;;;;;;;;;5095082;28;20443;-68
2021/09/12 15:27:43;;;;;;;5.63;2.58;;;;;;;;;;5095831;28;20105;-69
2021/09/12 15:30:09;;;;;;;7.70;3.03;;;;;;;;;;5095432;28;20060;-68
2021/09/12 15:32:35;;;;;;;13.75;5.55;;;;;;;;;;5110730;28;20080;-67
2021/09/12 15:36:35;;;;;;;6.47;2.53;;;;;;;;;;5111831;27;20416;-68
2021/09/12 15:39:01;;;;;;;4.85;2.20;;;;;;;;;;5109549;28;20031;-68
2021/09/12 15:41:27;;;;;;;6.47;2.20;;;;;;;;;;5111399;28;20020;-69
2021/09/12 15:43:54;;;;;;;7.00;2.67;;;;;;;;;;5111495;28;20022;-69
2021/09/12 15:46:20;;;;;;;5.97;2.88;;;;;;;;;;5111017;28;20058;-69
2021/09/12 15:48:46;;;;;;;5.60;2.65;;;;;;;;;;5111166;28;20095;-69
2021/09/12 15:51:12;;;;;;;3.90;2.17;;;;;;;;;;5111091;28;20477;-69
2021/09/12 15:55:16;;;;;;;5.05;1.98;;;;;;;;;;5111573;27;20862;-69
2021/09/12 15:57:43;;;;;;;5.55;1.90;;;;;;;;;;5111226;28;20080;-68
2021/09/12 16:00:09;;;;;;;4.80;2.35;;;;;;;;;;5109577;28;20432;-69
2021/09/12 16:02:35;;;;;;;4.45;2.10;;;;;;;;;;5111408;28;20035;-69
2021/09/12 16:05:01;;;;;;;6.43;2.53;;;;;;;;;;5111413;28;20023;-69
2021/09/12 16:07:27;;;;;;;4.78;2.55;;;;;;;;;;5110721;28;20028;-70
2021/09/12 16:09:54;;;;;;;7.95;2.53;;;;;;;;;;5109853;28;20484;-69
2021/09/12 16:12:20;;;;;;;5.65;2.45;;;;;;;;;;5110912;28;20035;-70
2021/09/12 16:16:25;;;;;;;6.82;2.88;;;;;;;;;;5111455;27;20388;-68
2021/09/12 16:18:51;;;;;;;5.80;1.95;;;;;;;;;;5111889;28;20020;-69
2021/09/12 16:21:18;;;;;;;4.95;2.00;;;;;;;;;;5109446;28;20024;-68
2021/09/12 16:25:20;;;;;;;7.97;2.33;;;;;;;;;;5112107;27;20823;-69
2021/09/12 16:27:46;;;;;;;4.88;2.65;;;;;;;;;;5109942;28;20442;-70
2021/09/12 16:30:12;;;;;;;9.93;4.30;;;;;;;;;;5110750;28;20027;-70
2021/09/12 16:32:39;;;;;;;8.63;4.43;;;;;;;;;;5109923;28;20020;-69
2021/09/12 16:35:05;;;;;;;8.98;3.20;;;;;;;;;;5109809;28;20028;-69
2021/09/12 16:37:31;;;;;;;6.20;2.85;;;;;;;;;;5110741;28;20052;-69
2021/09/12 16:39:57;;;;;;;6.28;2.70;;;;;;;;;;5111201;28;20202;-69
2021/09/12 16:42:24;;;;;;;7.00;2.83;;;;;;;;;;5109355;28;20356;-69
2021/09/12 16:44:57;;;;;;;5.95;2.75;;;;;;;;;;5109613;28;20046;-69
2021/09/12 16:47:23;;;;;;;5.22;2.75;;;;;;;;;;5111031;28;20020;-69
2021/09/12 16:49:49;;;;;;;5.57;2.78;;;;;;;;;;5109127;28;20391;-68
2021/09/12 16:52:16;;;;;;;5.30;2.35;;;;;;;;;;5111420;28;20016;-69